Time;durP1;ratioP1;P1;durP2;ratioP2;P2;SDS_P1;SDS_P2;PMS_P1;PMS_P2;Temp;Humidity;BMP_temperature;BMP_pressure;BME280_temperature;BME280_humidity;BME280_pressure;Samples;Min_cycle;Max_cycle;Signal;HPM_P1;HPM_P2
2023/05/06 00:02:08;;;;;;;1.10;1.08;;;;;;;;;;4974479;28;59479;-72
2023/05/06 00:04:33;;;;;;;1.10;1.00;;;;;;;;;;4977573;28;59210;-72
2023/05/06 00:06:59;;;;;;;2.43;1.10;;;;;;;;;;4971786;28;59661;-71
2023/05/06 00:09:24;;;;;;;0.80;0.80;;;;;;;;;;4973788;28;59546;-71
2023/05/06 00:11:49;;;;;;;1.23;1.02;;;;;;;;;;4975157;28;61202;-72
2023/05/06 00:14:15;;;;;;;1.20;1.10;;;;;;;;;;4972000;28;59119;-71
2023/05/06 00:16:40;;;;;;;1.10;1.00;;;;;;;;;;4974420;28;59820;-71
2023/05/06 00:19:05;;;;;;;1.00;1.00;;;;;;;;;;4973363;28;59702;-71
2023/05/06 00:21:30;;;;;;;1.35;1.25;;;;;;;;;;4965114;28;59307;-70
2023/05/06 00:23:56;;;;;;;1.92;1.13;;;;;;;;;;4974185;28;59319;-70
2023/05/06 00:26:21;;;;;;;1.07;0.93;;;;;;;;;;4970847;28;59141;-72
2023/05/06 00:28:46;;;;;;;1.10;1.00;;;;;;;;;;4970102;28;59543;-72
2023/05/06 00:31:11;;;;;;;3.13;1.25;;;;;;;;;;4975499;28;59687;-72
2023/05/06 00:33:36;;;;;;;1.30;1.10;;;;;;;;;;4964777;28;59647;-72
2023/05/06 00:36:02;;;;;;;1.53;0.93;;;;;;;;;;4967416;28;59363;-70
2023/05/06 00:38:27;;;;;;;5.23;1.40;;;;;;;;;;4972736;28;59311;-71
2023/05/06 00:40:52;;;;;;;1.27;1.23;;;;;;;;;;4974533;28;59204;-72
2023/05/06 00:43:17;;;;;;;1.33;1.00;;;;;;;;;;4972914;28;59148;-72
2023/05/06 00:45:42;;;;;;;1.00;1.00;;;;;;;;;;4978545;28;60147;-72
2023/05/06 00:48:08;;;;;;;1.20;1.10;;;;;;;;;;4970250;28;58924;-72
2023/05/06 00:50:33;;;;;;;0.63;0.63;;;;;;;;;;4973400;28;59368;-72
2023/05/06 00:52:59;;;;;;;1.13;1.03;;;;;;;;;;4970173;28;59561;-72
2023/05/06 00:55:25;;;;;;;0.90;0.90;;;;;;;;;;4980116;28;58584;-72
2023/05/06 00:57:50;;;;;;;1.25;1.15;;;;;;;;;;4976643;28;59514;-72
2023/05/06 01:00:16;;;;;;;1.08;0.90;;;;;;;;;;4985309;28;59604;-72
2023/05/06 01:02:41;;;;;;;1.13;1.13;;;;;;;;;;4980318;28;59229;-72
2023/05/06 01:05:07;;;;;;;0.80;0.80;;;;;;;;;;4982923;28;59377;-71
2023/05/06 01:07:38;;;;;;;1.38;1.17;;;;;;;;;;4979407;28;59437;-72
2023/05/06 01:10:19;;;;;;;0.90;0.90;;;;;;;;;;4982705;28;59561;-72
2023/05/06 01:12:56;;;;;;;1.02;0.98;;;;;;;;;;4983690;28;59527;-72
2023/05/06 01:15:27;;;;;;;0.90;0.90;;;;;;;;;;4978213;28;59419;-72
2023/05/06 01:17:56;;;;;;;0.95;0.95;;;;;;;;;;4981318;28;59892;-72
2023/05/06 01:20:21;;;;;;;1.02;1.00;;;;;;;;;;4980869;28;59412;-71
2023/05/06 01:22:47;;;;;;;0.88;0.88;;;;;;;;;;4980732;28;59170;-71
2023/05/06 01:25:20;;;;;;;1.40;1.30;;;;;;;;;;4982703;28;59307;-71
2023/05/06 01:27:45;;;;;;;1.65;1.55;;;;;;;;;;4979438;28;59186;-72
2023/05/06 01:30:10;;;;;;;1.40;1.20;;;;;;;;;;4982513;28;59159;-70
2023/05/06 01:32:48;;;;;;;0.82;0.82;;;;;;;;;;4980110;28;59417;-72
2023/05/06 01:35:25;;;;;;;1.20;1.10;;;;;;;;;;4980720;28;59563;-71
2023/05/06 01:37:54;;;;;;;1.15;1.05;;;;;;;;;;4983678;28;59884;-72
2023/05/06 01:40:21;;;;;;;1.15;0.93;;;;;;;;;;4981355;28;59201;-72
2023/05/06 01:42:48;;;;;;;0.95;0.95;;;;;;;;;;4979658;28;59390;-72
2023/05/06 01:45:14;;;;;;;2.55;1.10;;;;;;;;;;4981960;28;60888;-72
2023/05/06 01:47:39;;;;;;;0.82;0.82;;;;;;;;;;4979890;28;59118;-71
2023/05/06 01:50:05;;;;;;;0.77;0.77;;;;;;;;;;4982515;28;59488;-72
2023/05/06 01:52:30;;;;;;;0.65;0.65;;;;;;;;;;4977244;28;59781;-72
2023/05/06 01:54:55;;;;;;;1.58;1.40;;;;;;;;;;4977962;28;59558;-71
2023/05/06 01:57:20;;;;;;;0.80;0.80;;;;;;;;;;4978598;28;60048;-71
2023/05/06 01:59:45;;;;;;;1.07;1.03;;;;;;;;;;4981531;28;59762;-69
2023/05/06 02:02:11;;;;;;;1.20;1.10;;;;;;;;;;4981724;28;59413;-71
2023/05/06 02:04:36;;;;;;;1.10;1.00;;;;;;;;;;4978320;28;59551;-72
2023/05/06 02:07:01;;;;;;;0.88;0.88;;;;;;;;;;4977386;28;58540;-72
2023/05/06 02:09:26;;;;;;;0.90;0.90;;;;;;;;;;4979114;28;59214;-72
2023/05/06 02:11:51;;;;;;;1.00;0.98;;;;;;;;;;4978470;28;59826;-71
2023/05/06 02:14:16;;;;;;;1.10;1.00;;;;;;;;;;4979903;28;59190;-72
2023/05/06 02:16:41;;;;;;;1.27;1.17;;;;;;;;;;4979343;28;60023;-70
2023/05/06 02:19:07;;;;;;;0.85;0.85;;;;;;;;;;4978701;28;59170;-71
2023/05/06 02:21:32;;;;;;;1.30;1.20;;;;;;;;;;4981073;28;59410;-72
2023/05/06 02:23:57;;;;;;;2.65;1.52;;;;;;;;;;4980131;28;59210;-72
2023/05/06 02:26:22;;;;;;;0.90;0.90;;;;;;;;;;4978013;28;59558;-71
2023/05/06 02:28:47;;;;;;;0.73;0.73;;;;;;;;;;4974583;28;59551;-72
2023/05/06 02:31:15;;;;;;;0.90;0.85;;;;;;;;;;4971006;28;59857;-72
2023/05/06 02:33:40;;;;;;;0.90;0.90;;;;;;;;;;4981601;28;59411;-72
2023/05/06 02:36:05;;;;;;;1.07;1.00;;;;;;;;;;4982917;28;59411;-72
2023/05/06 02:38:30;;;;;;;1.20;1.10;;;;;;;;;;4977976;28;59394;-71
2023/05/06 02:40:56;;;;;;;0.80;0.80;;;;;;;;;;4979110;28;59565;-69
2023/05/06 02:43:21;;;;;;;0.90;0.90;;;;;;;;;;4980625;28;59209;-71
2023/05/06 02:45:47;;;;;;;1.00;0.85;;;;;;;;;;4974151;28;60116;-72
2023/05/06 02:48:12;;;;;;;0.90;0.90;;;;;;;;;;4979841;28;59467;-71
2023/05/06 02:50:37;;;;;;;1.20;1.20;;;;;;;;;;4978691;28;59217;-71
2023/05/06 02:53:02;;;;;;;1.40;1.30;;;;;;;;;;4980800;28;59589;-72
2023/05/06 02:55:27;;;;;;;0.90;0.90;;;;;;;;;;4975996;28;58865;-72
2023/05/06 02:57:52;;;;;;;0.98;0.98;;;;;;;;;;4980637;28;60229;-72
2023/05/06 03:00:18;;;;;;;0.77;0.77;;;;;;;;;;4980435;28;59183;-72
2023/05/06 03:02:43;;;;;;;0.90;0.90;;;;;;;;;;4979264;28;59336;-71
2023/05/06 03:05:08;;;;;;;1.00;1.00;;;;;;;;;;4975299;28;59153;-72
2023/05/06 03:07:34;;;;;;;1.63;1.10;;;;;;;;;;4978104;28;59359;-72
2023/05/06 03:10:00;;;;;;;1.33;1.23;;;;;;;;;;4979892;28;59290;-69
2023/05/06 03:12:25;;;;;;;0.88;0.88;;;;;;;;;;4978993;28;59565;-69
2023/05/06 03:14:50;;;;;;;1.10;1.00;;;;;;;;;;4978889;28;59605;-72
2023/05/06 03:17:15;;;;;;;0.90;0.90;;;;;;;;;;4978176;28;59422;-72
2023/05/06 03:19:40;;;;;;;1.23;0.67;;;;;;;;;;4982600;28;59073;-71
2023/05/06 03:22:06;;;;;;;1.00;0.95;;;;;;;;;;4981967;28;59144;-72
2023/05/06 03:24:31;;;;;;;1.08;0.98;;;;;;;;;;4980058;28;59169;-71
2023/05/06 03:26:57;;;;;;;1.20;1.20;;;;;;;;;;4980130;28;59217;-72
2023/05/06 03:29:22;;;;;;;1.33;1.25;;;;;;;;;;4975246;28;59912;-72
2023/05/06 03:31:48;;;;;;;0.90;0.90;;;;;;;;;;4977296;28;59215;-72
2023/05/06 03:34:13;;;;;;;0.88;0.85;;;;;;;;;;4979683;28;59578;-71
2023/05/06 03:36:38;;;;;;;1.20;1.10;;;;;;;;;;4975773;28;59183;-72
2023/05/06 03:39:03;;;;;;;1.08;1.02;;;;;;;;;;4975446;28;59585;-72
2023/05/06 03:41:28;;;;;;;0.75;0.75;;;;;;;;;;4977109;28;59541;-71
2023/05/06 03:43:54;;;;;;;1.02;1.00;;;;;;;;;;4964286;28;59222;-72
2023/05/06 03:46:19;;;;;;;0.90;0.88;;;;;;;;;;4971057;28;59669;-71
2023/05/06 03:48:44;;;;;;;1.00;1.00;;;;;;;;;;4969685;28;59816;-71
2023/05/06 03:51:10;;;;;;;0.95;0.90;;;;;;;;;;4970402;28;59574;-72
2023/05/06 03:53:35;;;;;;;0.88;0.88;;;;;;;;;;4976581;28;59491;-72
2023/05/06 03:56:00;;;;;;;1.15;1.10;;;;;;;;;;4976616;28;60527;-71
2023/05/06 03:58:25;;;;;;;0.97;0.80;;;;;;;;;;4976005;28;59229;-72
2023/05/06 04:00:50;;;;;;;1.00;1.00;;;;;;;;;;4975679;28;58542;-72
2023/05/06 04:03:16;;;;;;;0.80;0.80;;;;;;;;;;4972732;28;59298;-71
2023/05/06 04:05:41;;;;;;;0.90;0.90;;;;;;;;;;4977660;28;59139;-70
2023/05/06 04:08:06;;;;;;;1.30;0.50;;;;;;;;;;4967678;28;59533;-72
2023/05/06 04:10:31;;;;;;;0.82;0.82;;;;;;;;;;4976404;28;59608;-68
2023/05/06 04:12:56;;;;;;;0.77;0.77;;;;;;;;;;4974297;28;58465;-72
2023/05/06 04:15:21;;;;;;;1.23;1.15;;;;;;;;;;4979558;28;59730;-72
2023/05/06 04:17:47;;;;;;;1.17;1.00;;;;;;;;;;4975032;28;59619;-71
2023/05/06 04:20:13;;;;;;;0.80;0.80;;;;;;;;;;4974087;28;58905;-72
2023/05/06 04:22:38;;;;;;;0.98;0.98;;;;;;;;;;4975951;28;59654;-72
2023/05/06 04:25:03;;;;;;;0.95;0.95;;;;;;;;;;4980009;28;59545;-71
2023/05/06 04:27:30;;;;;;;3.20;0.77;;;;;;;;;;4978794;28;60141;-70
2023/05/06 04:29:56;;;;;;;1.67;1.25;;;;;;;;;;4979903;28;58630;-72
2023/05/06 04:32:24;;;;;;;0.70;0.70;;;;;;;;;;4977255;28;59396;-71
2023/05/06 04:34:50;;;;;;;0.98;0.90;;;;;;;;;;4976593;28;61829;-72
2023/05/06 04:37:16;;;;;;;0.98;0.90;;;;;;;;;;4977426;28;59489;-72
2023/05/06 04:39:41;;;;;;;1.08;1.08;;;;;;;;;;4981792;28;59839;-71
2023/05/06 04:42:06;;;;;;;0.80;0.80;;;;;;;;;;4977084;28;59687;-72
2023/05/06 04:44:32;;;;;;;1.03;1.00;;;;;;;;;;4975221;28;59398;-72
2023/05/06 04:46:58;;;;;;;0.75;0.75;;;;;;;;;;4974994;28;59815;-72
2023/05/06 04:49:23;;;;;;;0.70;0.70;;;;;;;;;;4977558;28;59647;-71
2023/05/06 04:51:48;;;;;;;1.00;1.00;;;;;;;;;;4977622;28;59428;-72
2023/05/06 04:54:13;;;;;;;0.90;0.90;;;;;;;;;;4976284;28;59790;-71
2023/05/06 04:56:38;;;;;;;0.70;0.70;;;;;;;;;;4979892;28;59589;-72
2023/05/06 04:59:03;;;;;;;0.80;0.80;;;;;;;;;;4976914;28;60635;-72
2023/05/06 05:01:28;;;;;;;0.83;0.83;;;;;;;;;;4975964;28;59660;-73
2023/05/06 05:03:54;;;;;;;1.00;1.00;;;;;;;;;;4973533;28;59414;-72
2023/05/06 05:06:19;;;;;;;0.73;0.73;;;;;;;;;;4979908;28;59284;-72
2023/05/06 05:08:44;;;;;;;0.80;0.80;;;;;;;;;;4975080;28;59509;-73
2023/05/06 05:11:09;;;;;;;0.90;0.90;;;;;;;;;;4968184;28;59523;-72
2023/05/06 05:13:34;;;;;;;0.93;0.90;;;;;;;;;;4968827;28;59328;-72
2023/05/06 05:16:00;;;;;;;1.03;0.90;;;;;;;;;;4966650;28;59305;-73
2023/05/06 05:18:25;;;;;;;0.63;0.63;;;;;;;;;;4970423;28;58538;-71
2023/05/06 05:20:50;;;;;;;0.97;0.97;;;;;;;;;;4972970;28;59516;-73
2023/05/06 05:23:15;;;;;;;0.80;0.80;;;;;;;;;;4970129;28;59268;-73
2023/05/06 05:25:40;;;;;;;0.68;0.68;;;;;;;;;;4971462;28;59704;-72
2023/05/06 05:28:05;;;;;;;0.93;0.93;;;;;;;;;;4972177;28;59648;-73
2023/05/06 05:30:30;;;;;;;1.00;0.95;;;;;;;;;;4971871;28;59083;-73
2023/05/06 05:32:56;;;;;;;1.48;0.77;;;;;;;;;;4973335;28;59437;-72
2023/05/06 05:35:21;;;;;;;0.90;0.90;;;;;;;;;;4973698;28;59545;-72
2023/05/06 05:37:46;;;;;;;0.60;0.60;;;;;;;;;;4969030;28;60324;-72
2023/05/06 05:40:11;;;;;;;0.90;0.90;;;;;;;;;;4969598;28;59285;-72
2023/05/06 05:42:37;;;;;;;0.85;0.85;;;;;;;;;;4974532;28;59179;-72
2023/05/06 05:45:02;;;;;;;1.20;1.10;;;;;;;;;;4970354;28;59403;-69
2023/05/06 05:47:27;;;;;;;0.80;0.80;;;;;;;;;;4973930;28;59826;-71
2023/05/06 05:49:53;;;;;;;0.87;0.87;;;;;;;;;;4971240;28;59073;-72
2023/05/06 05:52:18;;;;;;;0.70;0.70;;;;;;;;;;4972261;28;59586;-72
2023/05/06 05:54:43;;;;;;;0.80;0.80;;;;;;;;;;4971220;28;59259;-72
2023/05/06 05:57:08;;;;;;;1.10;1.10;;;;;;;;;;4974246;28;59236;-73
2023/05/06 05:59:33;;;;;;;0.93;0.93;;;;;;;;;;4974034;28;60730;-72
2023/05/06 06:01:58;;;;;;;0.83;0.77;;;;;;;;;;4968536;28;59556;-70
2023/05/06 06:04:24;;;;;;;1.10;1.00;;;;;;;;;;4977606;28;59879;-73
2023/05/06 06:06:49;;;;;;;1.50;1.00;;;;;;;;;;4974087;28;60021;-72
2023/05/06 06:09:16;;;;;;;0.90;0.90;;;;;;;;;;4978594;28;59652;-72
2023/05/06 06:11:41;;;;;;;1.77;1.45;;;;;;;;;;4976246;28;59976;-72
2023/05/06 06:14:06;;;;;;;0.70;0.70;;;;;;;;;;4971440;28;59672;-73
2023/05/06 06:16:31;;;;;;;1.20;1.10;;;;;;;;;;4982289;28;60288;-73
2023/05/06 06:18:56;;;;;;;1.40;1.30;;;;;;;;;;4976264;28;59493;-72
2023/05/06 06:21:21;;;;;;;1.40;1.30;;;;;;;;;;4972311;28;59217;-72
2023/05/06 06:23:47;;;;;;;1.50;1.40;;;;;;;;;;4977735;28;59435;-69
2023/05/06 06:26:12;;;;;;;1.58;1.48;;;;;;;;;;4970041;28;59560;-72
2023/05/06 06:28:37;;;;;;;1.30;1.20;;;;;;;;;;4965346;28;59647;-70
2023/05/06 06:31:02;;;;;;;3.50;2.20;;;;;;;;;;4972495;28;59401;-73
2023/05/06 06:33:27;;;;;;;2.40;2.20;;;;;;;;;;4976739;28;59509;-71
2023/05/06 06:35:52;;;;;;;2.38;1.65;;;;;;;;;;4975493;28;59204;-73
2023/05/06 06:38:17;;;;;;;2.40;2.20;;;;;;;;;;4975011;28;59324;-72
2023/05/06 06:40:43;;;;;;;2.47;1.97;;;;;;;;;;4990057;28;59501;-68
2023/05/06 06:43:08;;;;;;;2.33;1.80;;;;;;;;;;4977188;28;59200;-71
2023/05/06 06:45:33;;;;;;;2.37;2.17;;;;;;;;;;4976204;28;59602;-68
2023/05/06 06:47:58;;;;;;;2.77;1.77;;;;;;;;;;4975344;28;59216;-72
2023/05/06 06:50:23;;;;;;;4.00;1.83;;;;;;;;;;4976087;28;59730;-69
2023/05/06 06:52:48;;;;;;;3.17;2.13;;;;;;;;;;4974165;28;59790;-73
2023/05/06 06:55:14;;;;;;;1.90;1.80;;;;;;;;;;4976327;28;59161;-71
2023/05/06 06:57:39;;;;;;;2.92;2.22;;;;;;;;;;4980640;28;59131;-71
2023/05/06 07:00:05;;;;;;;4.43;2.50;;;;;;;;;;4977272;28;59222;-71
2023/05/06 07:02:30;;;;;;;4.30;1.95;;;;;;;;;;4980900;28;59315;-68
2023/05/06 07:04:55;;;;;;;4.47;2.03;;;;;;;;;;4975137;28;59225;-68
2023/05/06 07:07:20;;;;;;;2.88;2.00;;;;;;;;;;4981135;28;59150;-68
2023/05/06 07:09:45;;;;;;;5.05;2.42;;;;;;;;;;4975411;28;59451;-68
2023/05/06 07:12:11;;;;;;;3.35;2.05;;;;;;;;;;4977279;28;60176;-69
2023/05/06 07:14:36;;;;;;;2.10;1.90;;;;;;;;;;4977484;28;59776;-70
2023/05/06 07:17:01;;;;;;;4.40;3.90;;;;;;;;;;4986569;28;59809;-70
2023/05/06 07:19:26;;;;;;;4.97;4.47;;;;;;;;;;4976370;28;59415;-69
2023/05/06 07:21:52;;;;;;;10.07;5.65;;;;;;;;;;4971579;28;59491;-67
2023/05/06 07:24:17;;;;;;;7.73;7.13;;;;;;;;;;4969735;28;59222;-71
2023/05/06 07:26:42;;;;;;;13.30;7.77;;;;;;;;;;4961912;28;59590;-68
2023/05/06 07:29:07;;;;;;;13.13;8.70;;;;;;;;;;4966945;28;59304;-70
2023/05/06 07:31:32;;;;;;;8.60;6.50;;;;;;;;;;4968378;28;59474;-69
2023/05/06 07:33:58;;;;;;;11.80;7.37;;;;;;;;;;4974524;28;59329;-67
2023/05/06 07:36:23;;;;;;;11.27;6.57;;;;;;;;;;4978516;28;59258;-67
2023/05/06 07:38:49;;;;;;;7.85;6.80;;;;;;;;;;4971910;28;59561;-67
2023/05/06 07:41:14;;;;;;;7.23;6.50;;;;;;;;;;4981064;28;59291;-71
2023/05/06 07:43:39;;;;;;;6.33;5.73;;;;;;;;;;4973900;28;59642;-69
2023/05/06 07:46:04;;;;;;;8.20;6.23;;;;;;;;;;4975358;28;59776;-71
2023/05/06 07:48:30;;;;;;;7.83;6.03;;;;;;;;;;4979200;28;59398;-71
2023/05/06 07:50:55;;;;;;;11.27;5.30;;;;;;;;;;4976936;28;59654;-69
2023/05/06 07:53:20;;;;;;;6.40;5.57;;;;;;;;;;4979120;28;59326;-71
2023/05/06 07:55:45;;;;;;;5.75;4.63;;;;;;;;;;4981770;28;59698;-68
2023/05/06 07:58:10;;;;;;;5.80;4.28;;;;;;;;;;4979065;28;59847;-72
2023/05/06 08:00:36;;;;;;;5.67;4.30;;;;;;;;;;4980013;28;59547;-71
2023/05/06 08:03:01;;;;;;;6.33;4.33;;;;;;;;;;4978064;28;59760;-71
2023/05/06 08:05:26;;;;;;;5.53;4.30;;;;;;;;;;4982414;28;59300;-72
2023/05/06 08:07:51;;;;;;;4.97;3.65;;;;;;;;;;4981042;28;59297;-68
2023/05/06 08:10:17;;;;;;;10.03;3.83;;;;;;;;;;4980672;28;60099;-67
2023/05/06 08:12:42;;;;;;;4.32;3.65;;;;;;;;;;4978064;28;59322;-67
2023/05/06 08:15:08;;;;;;;6.43;3.93;;;;;;;;;;4981024;28;59533;-68
2023/05/06 08:17:33;;;;;;;5.20;3.20;;;;;;;;;;4980382;28;59570;-68
2023/05/06 08:19:58;;;;;;;5.67;3.57;;;;;;;;;;4981772;28;59303;-68
2023/05/06 08:22:24;;;;;;;7.40;3.45;;;;;;;;;;4979235;28;59917;-67
2023/05/06 08:24:49;;;;;;;5.63;3.90;;;;;;;;;;4981393;28;59697;-68
2023/05/06 08:27:14;;;;;;;4.47;2.95;;;;;;;;;;4977940;28;59549;-67
2023/05/06 08:29:39;;;;;;;8.45;3.67;;;;;;;;;;4974453;28;59652;-68
2023/05/06 08:32:05;;;;;;;5.00;3.03;;;;;;;;;;4979819;28;59478;-67
2023/05/06 08:34:30;;;;;;;4.20;2.88;;;;;;;;;;4980063;28;59233;-67
2023/05/06 08:36:55;;;;;;;3.63;2.77;;;;;;;;;;4974104;28;59630;-68
2023/05/06 08:39:22;;;;;;;3.22;2.92;;;;;;;;;;4978262;28;62789;-67
2023/05/06 08:41:49;;;;;;;2.85;2.65;;;;;;;;;;4976125;28;59090;-67
2023/05/06 08:44:15;;;;;;;3.28;2.97;;;;;;;;;;4975214;28;59440;-72
2023/05/06 08:46:41;;;;;;;2.50;2.30;;;;;;;;;;4978908;28;59153;-67
2023/05/06 08:49:06;;;;;;;3.35;2.75;;;;;;;;;;4980152;28;59512;-71
2023/05/06 08:51:32;;;;;;;6.03;2.77;;;;;;;;;;4980430;28;59175;-72
2023/05/06 08:54:03;;;;;;;2.25;2.15;;;;;;;;;;4974815;28;59113;-67
2023/05/06 08:56:31;;;;;;;5.30;2.42;;;;;;;;;;4978778;28;61309;-72
2023/05/06 08:58:57;;;;;;;4.03;2.25;;;;;;;;;;4976435;28;59210;-69
2023/05/06 09:01:23;;;;;;;3.85;2.60;;;;;;;;;;4977325;28;59178;-69
2023/05/06 09:03:48;;;;;;;2.20;2.00;;;;;;;;;;4980293;28;59396;-72
2023/05/06 09:06:14;;;;;;;2.45;2.15;;;;;;;;;;4979100;28;59066;-69
2023/05/06 09:08:39;;;;;;;2.80;2.33;;;;;;;;;;4984209;28;59319;-68
2023/05/06 09:11:20;;;;;;;2.38;2.22;;;;;;;;;;4977025;28;59709;-70
2023/05/06 09:13:46;;;;;;;2.40;2.20;;;;;;;;;;4980265;28;59206;-69
2023/05/06 09:16:24;;;;;;;2.33;2.15;;;;;;;;;;4976718;28;59342;-69
2023/05/06 09:18:50;;;;;;;3.05;2.10;;;;;;;;;;4978625;28;59122;-68
2023/05/06 09:21:15;;;;;;;2.63;2.00;;;;;;;;;;4978619;28;59180;-68
2023/05/06 09:23:40;;;;;;;2.87;2.27;;;;;;;;;;4978650;28;59195;-68
2023/05/06 09:26:05;;;;;;;2.37;2.17;;;;;;;;;;4979235;28;59233;-71
2023/05/06 09:28:31;;;;;;;2.83;2.00;;;;;;;;;;4982675;28;59515;-71
2023/05/06 09:30:57;;;;;;;2.63;2.28;;;;;;;;;;4976724;28;59184;-70
2023/05/06 09:33:22;;;;;;;2.50;2.30;;;;;;;;;;4977038;28;59456;-71
2023/05/06 09:35:48;;;;;;;1.77;1.63;;;;;;;;;;4975696;28;59456;-66
2023/05/06 09:38:14;;;;;;;2.72;2.30;;;;;;;;;;4974058;28;59074;-68
2023/05/06 09:40:39;;;;;;;3.13;2.43;;;;;;;;;;4977234;28;59205;-69
2023/05/06 09:43:04;;;;;;;4.10;2.50;;;;;;;;;;4979152;28;59400;-69
2023/05/06 09:45:30;;;;;;;2.67;1.97;;;;;;;;;;4974247;28;59230;-72
2023/05/06 09:47:56;;;;;;;2.75;2.30;;;;;;;;;;4975704;28;59155;-70
2023/05/06 09:50:21;;;;;;;2.53;2.33;;;;;;;;;;4979106;28;59601;-68
2023/05/06 09:52:47;;;;;;;5.13;2.08;;;;;;;;;;4980686;28;59422;-68
2023/05/06 09:55:13;;;;;;;6.30;2.75;;;;;;;;;;4977027;28;59683;-69
2023/05/06 09:57:38;;;;;;;4.30;1.83;;;;;;;;;;4979032;28;59520;-68
2023/05/06 10:00:07;;;;;;;1.83;1.73;;;;;;;;;;4974163;28;59079;-70
2023/05/06 10:02:32;;;;;;;3.00;1.55;;;;;;;;;;4977016;28;60895;-67
2023/05/06 10:04:58;;;;;;;3.13;2.10;;;;;;;;;;4978220;28;59100;-67
2023/05/06 10:07:27;;;;;;;3.97;1.67;;;;;;;;;;4978079;28;59650;-66
2023/05/06 10:09:52;;;;;;;1.98;1.70;;;;;;;;;;4974743;28;59512;-67
2023/05/06 10:12:18;;;;;;;3.22;1.98;;;;;;;;;;4978191;28;59326;-67
2023/05/06 10:14:44;;;;;;;2.75;1.90;;;;;;;;;;4974901;28;59475;-68
2023/05/06 10:17:10;;;;;;;3.67;1.87;;;;;;;;;;4973807;28;59279;-69
2023/05/06 10:19:38;;;;;;;1.92;1.60;;;;;;;;;;4977444;28;59691;-68
2023/05/06 10:22:15;;;;;;;2.55;2.20;;;;;;;;;;4972765;28;59411;-68
2023/05/06 10:24:45;;;;;;;1.77;1.67;;;;;;;;;;4979616;28;59454;-69
2023/05/06 10:27:11;;;;;;;3.60;1.67;;;;;;;;;;4974626;28;59229;-68
2023/05/06 10:29:36;;;;;;;1.90;1.80;;;;;;;;;;4979913;28;59512;-67
2023/05/06 10:32:02;;;;;;;2.10;1.90;;;;;;;;;;4973589;28;59395;-73
2023/05/06 10:34:30;;;;;;;1.88;1.45;;;;;;;;;;4979273;28;59473;-68
2023/05/06 10:36:56;;;;;;;1.50;1.40;;;;;;;;;;4974167;28;59527;-70
2023/05/06 10:39:21;;;;;;;1.85;1.70;;;;;;;;;;4978671;28;59386;-69
2023/05/06 10:41:47;;;;;;;1.77;1.63;;;;;;;;;;4979689;28;59451;-72
2023/05/06 10:44:12;;;;;;;1.83;1.52;;;;;;;;;;4976586;28;59154;-67
2023/05/06 10:46:58;;;;;;;2.83;1.65;;;;;;;;;;4975864;28;59194;-71
2023/05/06 10:49:23;;;;;;;3.90;1.73;;;;;;;;;;4980283;28;59901;-69
2023/05/06 10:52:07;;;;;;;3.47;1.60;;;;;;;;;;4978796;28;59556;-66
2023/05/06 10:54:45;;;;;;;2.83;2.03;;;;;;;;;;4972004;28;62960;-66
2023/05/06 10:57:10;;;;;;;2.15;1.33;;;;;;;;;;4977592;28;59576;-66
2023/05/06 10:59:36;;;;;;;2.97;1.63;;;;;;;;;;4976912;28;59549;-67
2023/05/06 11:02:01;;;;;;;1.70;1.60;;;;;;;;;;4976494;28;59984;-70
2023/05/06 11:04:29;;;;;;;2.00;1.50;;;;;;;;;;4976442;28;79352;-72
2023/05/06 11:07:05;;;;;;;1.98;1.80;;;;;;;;;;4977159;28;59378;-72
2023/05/06 11:09:30;;;;;;;1.23;1.13;;;;;;;;;;4977041;28;64317;-68
2023/05/06 11:12:03;;;;;;;4.07;1.53;;;;;;;;;;4980626;28;59442;-67
2023/05/06 11:14:29;;;;;;;1.50;1.40;;;;;;;;;;4974800;28;59752;-68
2023/05/06 11:16:56;;;;;;;1.48;1.30;;;;;;;;;;4979398;28;59644;-72
2023/05/06 11:19:25;;;;;;;1.70;1.40;;;;;;;;;;4975043;28;59318;-68
2023/05/06 11:21:51;;;;;;;1.63;1.27;;;;;;;;;;4993412;28;60102;-67
2023/05/06 11:24:21;;;;;;;1.80;1.70;;;;;;;;;;4974623;28;59285;-71
2023/05/06 11:26:46;;;;;;;1.50;1.40;;;;;;;;;;4979428;28;58965;-69
2023/05/06 11:29:14;;;;;;;1.73;1.60;;;;;;;;;;4977590;28;59673;-67
2023/05/06 11:31:40;;;;;;;1.10;1.00;;;;;;;;;;4973827;28;59711;-68
2023/05/06 11:34:06;;;;;;;1.52;1.42;;;;;;;;;;4977157;28;59233;-67
2023/05/06 11:36:32;;;;;;;1.45;1.35;;;;;;;;;;4976463;28;59648;-67
2023/05/06 11:39:03;;;;;;;2.25;1.75;;;;;;;;;;4975962;28;59646;-65
2023/05/06 11:41:29;;;;;;;1.85;1.42;;;;;;;;;;4974634;28;61783;-66
2023/05/06 11:43:55;;;;;;;1.90;1.73;;;;;;;;;;4971759;28;59216;-69
2023/05/06 11:46:21;;;;;;;1.40;1.30;;;;;;;;;;4973641;28;59426;-67
2023/05/06 11:48:46;;;;;;;1.42;1.27;;;;;;;;;;4976728;28;59235;-67
2023/05/06 11:51:11;;;;;;;1.33;1.23;;;;;;;;;;4971912;28;59257;-70
2023/05/06 11:53:37;;;;;;;1.47;1.30;;;;;;;;;;4977387;28;59519;-69
2023/05/06 11:56:04;;;;;;;1.30;1.20;;;;;;;;;;4978001;28;59675;-67
2023/05/06 11:58:29;;;;;;;1.60;1.50;;;;;;;;;;4976111;28;59480;-66
2023/05/06 12:00:55;;;;;;;1.30;1.20;;;;;;;;;;4974385;28;59716;-70
2023/05/06 12:03:21;;;;;;;4.88;1.25;;;;;;;;;;4974101;28;59733;-72
2023/05/06 12:05:47;;;;;;;1.05;0.95;;;;;;;;;;4974307;28;59744;-70
2023/05/06 12:08:14;;;;;;;1.05;1.02;;;;;;;;;;4977649;28;59225;-72
2023/05/06 12:10:39;;;;;;;1.58;1.15;;;;;;;;;;4977430;28;59706;-72
2023/05/06 12:13:04;;;;;;;1.73;1.27;;;;;;;;;;4977128;28;59148;-72
2023/05/06 12:15:30;;;;;;;1.50;1.17;;;;;;;;;;4995242;28;62260;-72
2023/05/06 12:17:55;;;;;;;2.00;1.17;;;;;;;;;;4975123;28;59383;-72
2023/05/06 12:20:21;;;;;;;1.13;1.03;;;;;;;;;;4977339;28;59106;-72
2023/05/06 12:23:03;;;;;;;1.30;1.15;;;;;;;;;;4978247;28;59448;-70
2023/05/06 12:25:28;;;;;;;1.10;1.00;;;;;;;;;;4980898;28;59586;-72
2023/05/06 12:27:53;;;;;;;1.13;1.10;;;;;;;;;;4979883;28;59605;-72
2023/05/06 12:30:31;;;;;;;2.53;1.03;;;;;;;;;;4974932;28;59476;-72
2023/05/06 12:32:57;;;;;;;1.48;1.38;;;;;;;;;;4976303;28;59303;-72
2023/05/06 12:35:28;;;;;;;1.15;1.05;;;;;;;;;;4979200;28;60935;-72
2023/05/06 12:37:54;;;;;;;4.05;1.40;;;;;;;;;;4978314;28;59745;-72
2023/05/06 12:40:19;;;;;;;1.38;1.27;;;;;;;;;;4980675;28;59767;-72
2023/05/06 12:42:44;;;;;;;2.13;1.30;;;;;;;;;;4980247;28;59216;-70
2023/05/06 12:45:13;;;;;;;1.27;1.10;;;;;;;;;;4980827;28;59587;-71
2023/05/06 12:47:38;;;;;;;1.40;1.30;;;;;;;;;;4983436;28;59632;-72
2023/05/06 12:50:04;;;;;;;1.33;1.23;;;;;;;;;;4977860;28;59258;-72
2023/05/06 12:52:29;;;;;;;0.77;0.77;;;;;;;;;;4980035;28;59567;-72
2023/05/06 12:54:54;;;;;;;2.53;1.50;;;;;;;;;;4980562;28;59898;-72
2023/05/06 12:57:20;;;;;;;1.63;1.53;;;;;;;;;;4979920;28;59280;-72
2023/05/06 12:59:45;;;;;;;1.55;1.23;;;;;;;;;;4981953;28;59193;-70
2023/05/06 13:02:11;;;;;;;0.98;0.98;;;;;;;;;;4981101;28;59741;-72
2023/05/06 13:04:36;;;;;;;0.90;0.90;;;;;;;;;;4976317;28;59282;-72
2023/05/06 13:07:01;;;;;;;0.90;0.90;;;;;;;;;;4981570;28;59989;-71
2023/05/06 13:09:26;;;;;;;1.33;1.23;;;;;;;;;;4980530;28;59379;-72
2023/05/06 13:11:51;;;;;;;2.17;0.93;;;;;;;;;;4977089;28;59668;-73
2023/05/06 13:14:17;;;;;;;1.55;1.17;;;;;;;;;;4979723;28;59711;-72
2023/05/06 13:16:42;;;;;;;1.25;1.20;;;;;;;;;;4981705;28;59557;-71
2023/05/06 13:19:09;;;;;;;0.88;0.88;;;;;;;;;;4979041;28;59004;-72
2023/05/06 13:21:34;;;;;;;0.98;0.98;;;;;;;;;;4982836;28;59258;-72
2023/05/06 13:24:00;;;;;;;1.02;1.02;;;;;;;;;;4979853;28;59252;-72
2023/05/06 13:26:25;;;;;;;0.93;0.93;;;;;;;;;;4980068;28;59385;-72
2023/05/06 13:28:51;;;;;;;1.17;1.08;;;;;;;;;;4978018;28;59643;-72
2023/05/06 13:31:16;;;;;;;1.17;1.05;;;;;;;;;;4982722;28;59210;-72
2023/05/06 13:33:41;;;;;;;1.23;1.13;;;;;;;;;;4982920;28;59492;-70
2023/05/06 13:36:06;;;;;;;1.38;1.10;;;;;;;;;;4979776;28;59589;-72
2023/05/06 13:38:31;;;;;;;1.13;1.10;;;;;;;;;;4978900;28;59474;-72
2023/05/06 13:40:57;;;;;;;1.30;1.20;;;;;;;;;;4982309;28;59974;-72
2023/05/06 13:43:25;;;;;;;1.10;0.85;;;;;;;;;;4983193;28;59386;-72
2023/05/06 13:45:50;;;;;;;1.15;1.05;;;;;;;;;;4978824;28;59317;-69
2023/05/06 13:48:16;;;;;;;1.70;0.90;;;;;;;;;;4975982;28;59176;-71
2023/05/06 13:50:42;;;;;;;1.30;1.20;;;;;;;;;;4978401;28;59438;-71
2023/05/06 13:53:07;;;;;;;1.15;1.05;;;;;;;;;;4978565;28;61265;-72
2023/05/06 13:55:32;;;;;;;1.23;1.02;;;;;;;;;;4982568;28;59341;-72
2023/05/06 13:57:57;;;;;;;1.20;1.10;;;;;;;;;;4981599;28;59409;-71
2023/05/06 14:00:22;;;;;;;1.00;1.00;;;;;;;;;;4980225;28;60499;-72
2023/05/06 14:02:48;;;;;;;1.85;1.75;;;;;;;;;;4977039;28;59319;-72
2023/05/06 14:05:14;;;;;;;0.95;0.95;;;;;;;;;;4978502;28;59568;-72
2023/05/06 14:07:39;;;;;;;0.85;0.85;;;;;;;;;;4980309;28;59480;-72
2023/05/06 14:10:05;;;;;;;1.20;0.80;;;;;;;;;;4980407;28;59186;-72
2023/05/06 14:12:30;;;;;;;0.80;0.80;;;;;;;;;;4978887;28;59356;-72
2023/05/06 14:14:55;;;;;;;0.80;0.80;;;;;;;;;;4978480;28;59267;-70
2023/05/06 14:17:20;;;;;;;0.57;0.57;;;;;;;;;;4979487;28;59662;-72
2023/05/06 14:19:45;;;;;;;0.97;0.97;;;;;;;;;;4980570;28;59165;-71
2023/05/06 14:22:11;;;;;;;1.10;1.10;;;;;;;;;;4979688;28;59474;-71
2023/05/06 14:24:36;;;;;;;0.60;0.60;;;;;;;;;;4983793;28;59249;-72
2023/05/06 14:27:01;;;;;;;0.73;0.73;;;;;;;;;;4978269;28;59572;-72
2023/05/06 14:29:26;;;;;;;0.80;0.80;;;;;;;;;;4976334;28;59304;-71
2023/05/06 14:31:52;;;;;;;0.75;0.75;;;;;;;;;;4975840;28;59194;-72
2023/05/06 14:34:17;;;;;;;1.77;0.80;;;;;;;;;;4978334;28;59363;-72
2023/05/06 14:36:42;;;;;;;0.90;0.90;;;;;;;;;;4977885;28;59159;-72